ダカール の空港の天気 - METARとTAF

レオポール・セダール・サンゴール国際空港 ( GOOY / DKR ) - セネガル ダカール
飛行場実況気象(Metar)
観測時間08/22 16:00 GMT (08/22 16:00 UTC)
風向・風速南 7m/s
視程10km以上
天気現象
全天の4割程度の雲 雲底高度 400m
少しの雲 雲底高度 910m
気温29℃
湿度84%
気圧1009hPa
METARGOOY 221600Z 18014KT 9999 SCT013 FEW030CB 29/26 Q1009
過去の天気等 Google飛行場航空写真 Wunderground天気予報

過去48時間のMETAR

飛行場予報(TAF)
発表時間: 8/22 11:30 GMT (8/22 11:30 UTC)
予報対象時間: 22日12時 GMT ~ 23日18時 GMT
風向・風速南南西 3m/s
視程10km以上
全天の4割程度の雲 雲底高度 400m
22日17時 GMT ~ 22日24時 GMT に 確率 30% で一時的に
視程4500m
天気現象雷雨
全天の8割程度の雲 雲底高度 400m
少しの積乱雲 雲底高度 550m
TAF GOOY 221130Z 2212/2318 20006KT 9999 SCT013
PROB30 TEMPO 2217/2224 4500 TSRA BKN013 FEW018CB